createdAt,value
2018-03-29T18:28:43.691Z,928.11
2018-03-29T18:28:54.472Z,928.09
2018-03-29T18:29:06.610Z,928.04
2018-03-29T18:29:19.232Z,928.14
2018-03-29T18:29:31.325Z,928.17
2018-03-29T18:29:43.800Z,927.94
2018-03-29T18:29:56.003Z,928.04
2018-03-29T18:30:08.680Z,928.08
2018-03-29T18:30:21.288Z,928.17
2018-03-29T18:30:34.519Z,928.25
2018-03-29T18:30:47.123Z,928.15
2018-03-29T18:30:59.460Z,928.32
2018-03-29T18:31:11.709Z,928.29
2018-03-29T18:31:24.624Z,928.15
2018-03-29T18:31:37.489Z,928.17
2018-03-29T18:31:52.107Z,928.14
2018-03-29T18:32:04.154Z,928.32
2018-03-29T18:32:17.538Z,928.21
2018-03-29T18:32:30.509Z,928.34
2018-03-29T18:32:42.756Z,928.38
2018-03-29T18:32:55.984Z,928.39
2018-03-29T18:33:08.232Z,928.71
2018-03-29T18:33:21.893Z,928.55
2018-03-29T18:33:33.604Z,928.61
2018-03-29T18:33:45.692Z,928.6
2018-03-29T18:33:58.284Z,928.64
2018-03-29T18:34:10.868Z,928.64
2018-03-29T18:34:22.522Z,928.59
2018-03-29T18:34:36.179Z,928.58
2018-03-29T18:34:47.864Z,928.47
2018-03-29T18:35:01.120Z,928.4
2018-03-29T18:35:13.788Z,928.34
2018-03-29T18:35:26.421Z,928.31
2018-03-29T18:35:39.070Z,928.36
2018-03-29T18:35:51.702Z,928.23
2018-03-29T18:36:02.869Z,928.44
2018-03-29T18:36:15.416Z,928.37
2018-03-29T18:36:28.604Z,928.34
2018-03-29T18:36:40.829Z,928.39
2018-03-29T18:36:53.889Z,928.24
2018-03-29T18:37:05.991Z,928.29
2018-03-29T18:37:18.778Z,928.25
2018-03-29T18:37:32.133Z,928.29
2018-03-29T18:37:44.722Z,928.16
2018-03-29T18:37:58.829Z,928.15
2018-03-29T18:38:10.454Z,928.12
2018-03-29T18:38:22.591Z,928.21
2018-03-29T18:38:36.473Z,928.18
2018-03-29T18:38:49.026Z,928.16
2018-03-29T18:39:00.682Z,928.14
2018-03-29T18:39:12.877Z,928.21
2018-03-29T18:39:26.604Z,928.17
2018-03-29T18:39:39.261Z,928.15
2018-03-29T18:39:53.122Z,928.23
2018-03-29T18:40:05.821Z,928.19
2018-03-29T18:40:17.994Z,928.19
2018-03-29T18:40:30.873Z,928.2
2018-03-29T18:40:43.448Z,928.29
2018-03-29T18:40:56.150Z,928.16
2018-03-29T18:41:08.939Z,928.12
2018-03-29T18:41:21.597Z,928.16
2018-03-29T18:41:35.159Z,928.15
2018-03-29T18:41:48.055Z,928.12
2018-03-29T18:42:00.619Z,928.13
2018-03-29T18:42:13.235Z,928.18
2018-03-29T18:42:25.403Z,928.16
2018-03-29T18:42:37.561Z,928.17
2018-03-29T18:42:49.938Z,928.15
2018-03-29T18:43:02.156Z,928.16
2018-03-29T18:43:15.222Z,928.17
2018-03-29T18:43:28.400Z,928.17
2018-03-29T18:43:41.843Z,928.22
2018-03-29T18:43:54.994Z,928.22
2018-03-29T18:44:08.539Z,928.16
2018-03-29T18:44:21.220Z,928.16
2018-03-29T18:44:33.668Z,928.1
2018-03-29T18:44:45.841Z,928.14
2018-03-29T18:44:58.501Z,928.12
2018-03-29T18:45:11.186Z,928.12
2018-03-29T18:45:23.705Z,928.14
2018-03-29T18:45:36.806Z,928.14
2018-03-29T18:45:48.477Z,928.16
2018-03-29T18:46:01.167Z,928.11
2018-03-29T18:46:13.849Z,928.12
2018-03-29T18:46:26.049Z,928.08
2018-03-29T18:46:39.089Z,928.1
2018-03-29T18:46:50.791Z,928.1
2018-03-29T18:47:03.234Z,928.06
2018-03-29T18:47:16.073Z,928.08
2018-03-29T18:47:28.234Z,928.07
2018-03-29T18:47:42.114Z,928.04
2018-03-29T18:47:54.318Z,928.03
2018-03-29T18:48:07.431Z,928.05
2018-03-29T18:48:20.476Z,928.04
2018-03-29T18:48:33.456Z,928.02
2018-03-29T18:48:45.587Z,928.03
2018-03-29T18:48:57.694Z,928.02
2018-03-29T18:49:10.817Z,928.05
2018-03-29T18:49:22.954Z,928.03
2018-03-29T18:49:35.663Z,928.02
2018-03-29T18:49:48.778Z,928.09
2018-03-29T18:50:00.895Z,928.02
2018-03-29T18:50:14.002Z,928.05
2018-03-29T18:50:26.642Z,928.07
2018-03-29T18:50:39.381Z,928.06
2018-03-29T18:50:51.945Z,928.07
2018-03-29T18:51:04.648Z,928.1
2018-03-29T18:51:17.303Z,928.03
2018-03-29T18:51:29.441Z,928.09
2018-03-29T18:51:42.257Z,928.05
2018-03-29T18:51:55.610Z,928.05
2018-03-29T18:52:08.246Z,928.08
2018-03-29T18:52:21.328Z,928.08
2018-03-29T18:52:33.455Z,928.1
2018-03-29T18:52:46.504Z,928.12
2018-03-29T18:52:58.607Z,928.09
2018-03-29T18:53:10.250Z,928.11
2018-03-29T18:53:22.436Z,928.09
2018-03-29T18:53:35.114Z,928.11
2018-03-29T18:53:47.304Z,928.12
2018-03-29T18:53:59.417Z,928.17
2018-03-29T18:54:11.028Z,928.16
2018-03-29T18:54:23.593Z,928.15
2018-03-29T18:54:35.331Z,928.16
2018-03-29T18:54:48.339Z,928.16
2018-03-29T18:55:00.982Z,928.21
2018-03-29T18:55:14.575Z,928.18
2018-03-29T18:55:27.110Z,928.17
2018-03-29T18:55:40.415Z,928.17
2018-03-29T18:55:53.012Z,928.15
2018-03-29T18:56:06.020Z,928.17
2018-03-29T18:56:18.639Z,928.19
2018-03-29T18:56:31.522Z,928.17
2018-03-29T18:56:44.671Z,928.19
2018-03-29T18:56:57.761Z,928.16
2018-03-29T18:57:11.135Z,928.18
2018-03-29T18:57:23.449Z,928.17
2018-03-29T18:57:36.704Z,928.14
2018-03-29T18:57:49.918Z,928.17
2018-03-29T18:58:02.524Z,928.14
2018-03-29T18:58:14.631Z,928.15
2018-03-29T18:58:27.827Z,928.12
2018-03-29T18:58:40.928Z,928.13
2018-03-29T18:58:53.462Z,928.12
2018-03-29T18:59:06.182Z,928.12
2018-03-29T18:59:18.329Z,928.12
2018-03-29T18:59:30.035Z,928.14
2018-03-29T18:59:42.613Z,928.14
2018-03-29T18:59:55.193Z,928.12
2018-03-29T19:00:07.252Z,928.12
2018-03-29T19:00:19.934Z,928.12
2018-03-29T19:00:33.021Z,928.12
2018-03-29T19:00:46.176Z,928.13
2018-03-29T19:00:58.870Z,928.14
2018-03-29T19:01:11.796Z,928.15
2018-03-29T19:01:24.471Z,928.14
2018-03-29T19:01:37.184Z,928.12
2018-03-29T19:01:50.209Z,928.13
2018-03-29T19:02:02.294Z,928.11
2018-03-29T19:02:15.649Z,928.13
2018-03-29T19:02:29.841Z,928.13
2018-03-29T19:02:43.281Z,928.16
2018-03-29T19:02:56.016Z,928.14
2018-03-29T19:03:10.167Z,928.13
2018-03-29T19:03:23.092Z,928.15
2018-03-29T19:03:35.615Z,928.11
2018-03-29T19:03:48.305Z,928.11
2018-03-29T19:04:01.639Z,928.12
2018-03-29T19:04:13.890Z,928.1
2018-03-29T19:04:26.053Z,928.12
2018-03-29T19:04:38.303Z,928.08
2018-03-29T19:04:51.006Z,928.1
2018-03-29T19:05:03.649Z,928.06
2018-03-29T19:05:16.641Z,928.04
2018-03-29T19:05:28.799Z,928.03
2018-03-29T19:05:42.993Z,928.04
2018-03-29T19:05:56.134Z,928.05
2018-03-29T19:06:07.805Z,928.02
2018-03-29T19:06:20.594Z,928.07
2018-03-29T19:06:33.177Z,928.04
2018-03-29T19:06:45.822Z,928.03
2018-03-29T19:06:58.872Z,928.06
2018-03-29T19:07:12.024Z,928.03
2018-03-29T19:07:25.286Z,928.02
2018-03-29T19:07:37.859Z,928
2018-03-29T19:07:50.435Z,927.99
2018-03-29T19:08:03.502Z,928.02
2018-03-29T19:08:16.159Z,928
2018-03-29T19:08:28.741Z,928
2018-03-29T19:08:41.987Z,928.02
2018-03-29T19:08:54.555Z,928
2018-03-29T19:09:06.742Z,928.01
2018-03-29T19:09:18.022Z,927.99
2018-03-29T19:09:29.612Z,928.01
2018-03-29T19:09:42.159Z,928.01
2018-03-29T19:09:54.909Z,927.97
2018-03-29T19:10:08.234Z,927.95
2018-03-29T19:10:19.950Z,927.97
2018-03-29T19:10:33.292Z,927.96
2018-03-29T19:10:46.185Z,927.95
2018-03-29T19:10:58.800Z,927.93
2018-03-29T19:11:11.434Z,927.95
2018-03-29T19:11:24.874Z,927.95
2018-03-29T19:11:37.992Z,927.91
2018-03-29T19:11:51.206Z,927.94
2018-03-29T19:12:03.805Z,927.97
2018-03-29T19:12:16.384Z,927.97
2018-03-29T19:12:29.083Z,927.96
2018-03-29T19:12:42.404Z,927.94
2018-03-29T19:12:55.771Z,927.96
2018-03-29T19:13:08.930Z,927.96
2018-03-29T19:13:21.732Z,927.97
2018-03-29T19:13:34.291Z,927.99
2018-03-29T19:13:47.357Z,927.97
2018-03-29T19:14:00.477Z,927.97
2018-03-29T19:14:13.817Z,928.01
2018-03-29T19:14:26.918Z,928
2018-03-29T19:14:39.069Z,928
2018-03-29T19:14:51.664Z,928.01
2018-03-29T19:15:03.442Z,928.05
2018-03-29T19:15:16.105Z,928.04
2018-03-29T19:15:28.895Z,928.02
2018-03-29T19:15:41.983Z,928.04
2018-03-29T19:15:54.587Z,928.04
2018-03-29T19:16:06.789Z,928.06
2018-03-29T19:16:18.585Z,928.05
2018-03-29T19:16:31.211Z,928.07
2018-03-29T19:16:43.979Z,928.08
2018-03-29T19:16:56.862Z,928.07
2018-03-29T19:17:10.025Z,928.07
2018-03-29T19:17:22.094Z,928.06
2018-03-29T19:17:34.726Z,928.08
2018-03-29T19:17:47.359Z,928.06
2018-03-29T19:18:00.554Z,928.06
2018-03-29T19:18:13.130Z,928.07
2018-03-29T19:18:25.727Z,928.06
2018-03-29T19:18:37.861Z,928.09
2018-03-29T19:18:51.228Z,928.1
2018-03-29T19:19:05.245Z,928.05
2018-03-29T19:19:18.547Z,928.05
2018-03-29T19:19:29.777Z,928.12
2018-03-29T19:19:42.411Z,928.06
2018-03-29T19:19:55.478Z,928.1
2018-03-29T19:20:08.569Z,928.12
2018-03-29T19:20:21.629Z,928.13
2018-03-29T19:20:34.243Z,928.11
2018-03-29T19:20:47.096Z,928.12
2018-03-29T19:20:59.339Z,928.1
2018-03-29T19:21:13.119Z,928.11
2018-03-29T19:21:25.368Z,928.13
2018-03-29T19:21:37.622Z,928.13
2018-03-29T19:21:50.696Z,928.13
2018-03-29T19:22:04.053Z,928.09
2018-03-29T19:22:16.689Z,928.11
2018-03-29T19:22:29.745Z,928.12
2018-03-29T19:22:42.355Z,928.11
2018-03-29T19:22:54.466Z,928.08
2018-03-29T19:23:06.616Z,928.05
2018-03-29T19:23:19.315Z,928.11
2018-03-29T19:23:31.980Z,928.09
2018-03-29T19:23:44.595Z,928.08
2018-03-29T19:23:57.254Z,928.1
2018-03-29T19:24:08.566Z,928.11
2018-03-29T19:24:20.786Z,928.08
2018-03-29T19:24:32.894Z,928.09
2018-03-29T19:24:45.500Z,928.09
2018-03-29T19:24:58.174Z,928.08
2018-03-29T19:25:11.575Z,928.07
2018-03-29T19:25:25.365Z,928.08
2018-03-29T19:25:43.831Z,928.09
2018-03-29T19:25:56.909Z,928.09
2018-03-29T19:26:09.501Z,928.09
2018-03-29T19:26:22.370Z,928.14
2018-03-29T19:26:34.480Z,928.1
2018-03-29T19:26:47.614Z,928.09
2018-03-29T19:27:00.757Z,928.12
2018-03-29T19:27:11.993Z,928.07
2018-03-29T19:27:23.651Z,928.09
2018-03-29T19:27:36.336Z,928.11
2018-03-29T19:27:49.123Z,928.1
2018-03-29T19:28:01.966Z,928.09
2018-03-29T19:28:15.057Z,928.13
2018-03-29T19:28:27.250Z,928.11
2018-03-29T19:28:40.328Z,928.14
2018-03-29T19:28:54.096Z,928.12
2018-03-29T19:29:06.748Z,928.12
2018-03-29T19:29:20.614Z,928.12
2018-03-29T19:29:33.763Z,928.12
2018-03-29T19:29:45.914Z,928.15
2018-03-29T19:29:58.150Z,928.17
2018-03-29T19:30:11.199Z,928.15
2018-03-29T19:30:23.369Z,928.14
2018-03-29T19:30:36.444Z,928.16
2018-03-29T19:30:49.209Z,928.15
2018-03-29T19:31:01.877Z,928.15
2018-03-29T19:31:15.547Z,928.15
2018-03-29T19:31:28.911Z,928.18
2018-03-29T19:31:41.058Z,928.16
2018-03-29T19:31:54.257Z,928.18
2018-03-29T19:32:06.375Z,928.16
2018-03-29T19:32:18.076Z,928.17
2018-03-29T19:32:29.724Z,928.17
2018-03-29T19:32:42.285Z,928.17
2018-03-29T19:32:54.983Z,928.19
2018-03-29T19:33:08.065Z,928.18
2018-03-29T19:33:20.272Z,928.19
2018-03-29T19:33:32.849Z,928.18
2018-03-29T19:33:52.298Z,928.17
2018-03-29T19:34:04.503Z,928.18
2018-03-29T19:34:17.134Z,928.15
2018-03-29T19:34:32.912Z,928.16
2018-03-29T19:34:45.823Z,928.2
2018-03-29T19:34:58.514Z,928.15
2018-03-29T19:35:14.970Z,928.18
2018-03-29T19:35:28.486Z,928.2
2018-03-29T19:35:44.081Z,928.17
2018-03-29T19:35:56.066Z,928.2
2018-03-29T19:36:09.160Z,928.19
2018-03-29T19:36:21.826Z,928.2
2018-03-29T19:36:36.784Z,928.17
2018-03-29T19:36:48.406Z,928.18
2018-03-29T19:37:00.579Z,928.2
2018-03-29T19:37:12.718Z,928.17
2018-03-29T19:37:24.852Z,928.17
2018-03-29T19:37:38.709Z,928.19
2018-03-29T19:37:50.820Z,928.17
2018-03-29T19:38:03.968Z,928.17
2018-03-29T19:38:16.485Z,928.19
2018-03-29T19:38:30.026Z,928.2
2018-03-29T19:38:41.741Z,928.17
2018-03-29T19:38:53.861Z,928.15
2018-03-29T19:39:06.535Z,928.16
2018-03-29T19:39:19.895Z,928.15
2018-03-29T19:39:32.303Z,928.21
2018-03-29T19:39:45.115Z,928.18
2018-03-29T19:39:58.177Z,928.18
2018-03-29T19:40:09.926Z,928.13
2018-03-29T19:40:22.514Z,928.17
2018-03-29T19:40:35.914Z,928.16
2018-03-29T19:40:47.537Z,928.16
2018-03-29T19:40:59.656Z,928.19
2018-03-29T19:41:11.805Z,928.13
2018-03-29T19:41:25.087Z,928.16
2018-03-29T19:41:40.928Z,928.15
2018-03-29T19:41:53.070Z,928.17
2018-03-29T19:42:05.873Z,928.16
2018-03-29T19:42:17.591Z,928.17
2018-03-29T19:42:30.289Z,928.16
2018-03-29T19:42:42.235Z,928.16
2018-03-29T19:42:54.980Z,928.17
2018-03-29T19:43:07.235Z,928.16
2018-03-29T19:43:19.907Z,928.16
2018-03-29T19:43:33.885Z,928.1
2018-03-29T19:43:46.472Z,928.11
2018-03-29T19:43:59.605Z,928.15
2018-03-29T19:44:12.208Z,928.11
2018-03-29T19:44:25.083Z,928.08
2018-03-29T19:44:37.753Z,928.11
2018-03-29T19:44:49.940Z,928.07
2018-03-29T19:45:02.161Z,928.09
2018-03-29T19:45:13.740Z,928.14
2018-03-29T19:45:26.327Z,928.12
2018-03-29T19:45:38.597Z,928.17
2018-03-29T19:45:52.469Z,928.11
2018-03-29T19:46:04.587Z,928.13
2018-03-29T19:46:16.673Z,928.12
2018-03-29T19:46:30.395Z,928.15
2018-03-29T19:46:43.092Z,928.1
2018-03-29T19:46:55.822Z,928.15
2018-03-29T19:47:07.498Z,928.12
2018-03-29T19:47:21.075Z,928.12
2018-03-29T19:47:34.139Z,928.1
2018-03-29T19:47:47.200Z,928.15
2018-03-29T19:47:59.838Z,928.15
2018-03-29T19:48:13.088Z,928.15
2018-03-29T19:48:25.161Z,928.1
2018-03-29T19:48:37.363Z,928.11
2018-03-29T19:48:57.915Z,928.11
2018-03-29T19:49:10.043Z,928.13
2018-03-29T19:49:23.831Z,928.17
2018-03-29T19:49:36.549Z,928.14
2018-03-29T19:49:49.173Z,928.16
2018-03-29T19:50:02.272Z,928.13
2018-03-29T19:50:14.870Z,928.14
2018-03-29T19:50:27.474Z,928.17
2018-03-29T19:50:40.115Z,928.17
2018-03-29T19:50:52.265Z,928.14
2018-03-29T19:51:04.900Z,928.17
2018-03-29T19:51:17.727Z,928.13
2018-03-29T19:51:30.927Z,928.13
2018-03-29T19:51:43.871Z,928.13
2018-03-29T19:51:56.457Z,928.13
2018-03-29T19:52:08.547Z,928.14
2018-03-29T19:52:22.877Z,928.1
2018-03-29T19:52:35.573Z,928.14
2018-03-29T19:52:47.784Z,928.1
2018-03-29T19:52:59.468Z,928.18
2018-03-29T19:53:12.792Z,928.14
2018-03-29T19:53:24.462Z,928.15
2018-03-29T19:53:37.096Z,928.15
2018-03-29T19:53:53.194Z,928.14
2018-03-29T19:54:05.429Z,928.11
2018-03-29T19:54:17.208Z,928.15
2018-03-29T19:54:30.303Z,928.15
2018-03-29T19:54:43.823Z,928.13
2018-03-29T19:54:56.974Z,928.1
2018-03-29T19:55:09.682Z,928.11
2018-03-29T19:55:22.385Z,928.1
2018-03-29T19:55:41.276Z,928.06
2018-03-29T19:55:55.060Z,928.08
2018-03-29T19:56:07.644Z,928.08
2018-03-29T19:56:20.253Z,928.11
2018-03-29T19:56:33.428Z,928.07
2018-03-29T19:56:46.904Z,928.12
2018-03-29T19:56:58.601Z,928.09
2018-03-29T19:57:11.663Z,928.11
2018-03-29T19:57:24.281Z,928.08
2018-03-29T19:57:36.054Z,928.08
2018-03-29T19:57:49.103Z,928.13
2018-03-29T19:58:01.777Z,928.08
2018-03-29T19:58:14.021Z,928.14
2018-03-29T19:58:26.784Z,928.12
2018-03-29T19:58:39.038Z,928.11
2018-03-29T19:58:52.098Z,928.12
2018-03-29T19:59:04.212Z,928.15
2018-03-29T19:59:16.825Z,928.17
2018-03-29T19:59:29.622Z,928.19
2018-03-29T19:59:42.164Z,928.19
2018-03-29T19:59:53.794Z,928.15
2018-03-29T20:00:05.977Z,928.12
2018-03-29T20:00:19.878Z,928.14
2018-03-29T20:00:32.263Z,928.16
2018-03-29T20:00:46.315Z,928.14
2018-03-29T20:00:58.478Z,928.14
2018-03-29T20:01:09.664Z,928.13
2018-03-29T20:01:21.924Z,928.17
2018-03-29T20:01:34.032Z,928.11
2018-03-29T20:01:47.257Z,928.11
2018-03-29T20:01:59.855Z,928.11
2018-03-29T20:02:12.548Z,928.14
2018-03-29T20:02:25.165Z,928.15
2018-03-29T20:02:38.337Z,928.11
2018-03-29T20:02:50.534Z,928.08
2018-03-29T20:03:03.632Z,928.12
2018-03-29T20:03:16.292Z,928.14
2018-03-29T20:03:28.002Z,928.13
2018-03-29T20:03:40.594Z,928.14
2018-03-29T20:03:52.714Z,928.12
2018-03-29T20:04:05.696Z,928.13
2018-03-29T20:04:17.814Z,928.15
2018-03-29T20:04:31.273Z,928.16
2018-03-29T20:04:44.357Z,928.14
2018-03-29T20:04:57.492Z,928.15
2018-03-29T20:05:08.686Z,928.12
2018-03-29T20:05:20.858Z,928.15
2018-03-29T20:05:34.454Z,928.14
2018-03-29T20:05:52.019Z,928.16
2018-03-29T20:06:05.332Z,928.18
2018-03-29T20:06:17.458Z,928.18
2018-03-29T20:06:29.171Z,928.16
2018-03-29T20:06:41.004Z,928.18
2018-03-29T20:06:53.203Z,928.19
2018-03-29T20:07:05.759Z,928.19
2018-03-29T20:07:18.293Z,928.15
2018-03-29T20:07:32.318Z,928.21
2018-03-29T20:07:44.470Z,928.18
2018-03-29T20:07:57.565Z,928.18
2018-03-29T20:08:09.756Z,928.19
2018-03-29T20:08:23.023Z,928.19
2018-03-29T20:08:35.668Z,928.2
2018-03-29T20:08:48.839Z,928.21
2018-03-29T20:09:02.712Z,928.19
2018-03-29T20:09:16.048Z,928.18
2018-03-29T20:09:29.443Z,928.2
2018-03-29T20:09:42.018Z,928.21
2018-03-29T20:09:54.842Z,928.17
2018-03-29T20:10:07.510Z,928.19
2018-03-29T20:10:20.211Z,928.17
2018-03-29T20:10:33.487Z,928.19
2018-03-29T20:10:46.655Z,928.18
2018-03-29T20:10:58.815Z,928.16
2018-03-29T20:11:11.478Z,928.17
2018-03-29T20:11:24.595Z,928.16
2018-03-29T20:11:36.274Z,928.18
2018-03-29T20:11:47.973Z,928.16
2018-03-29T20:12:01.034Z,928.16
2018-03-29T20:12:13.581Z,928.16
2018-03-29T20:12:25.722Z,928.17
2018-03-29T20:12:38.430Z,928.16
2018-03-29T20:12:50.646Z,928.19
2018-03-29T20:13:03.290Z,928.19
2018-03-29T20:13:15.443Z,928.14
2018-03-29T20:13:28.111Z,928.13
2018-03-29T20:13:41.251Z,928.13
2018-03-29T20:13:53.876Z,928.15
2018-03-29T20:14:06.103Z,928.14
2018-03-29T20:14:18.761Z,928.16
2018-03-29T20:14:33.658Z,928.16
2018-03-29T20:14:45.831Z,928.15
2018-03-29T20:14:58.405Z,928.16
2018-03-29T20:15:11.094Z,928.12
2018-03-29T20:15:23.248Z,928.15
2018-03-29T20:15:35.604Z,928.16
2018-03-29T20:15:47.747Z,928.15
2018-03-29T20:15:59.877Z,928.15
2018-03-29T20:16:12.013Z,928.18
2018-03-29T20:16:24.544Z,928.13
2018-03-29T20:16:37.975Z,928.17
2018-03-29T20:16:50.387Z,928.17
2018-03-29T20:17:03.548Z,928.13
2018-03-29T20:17:15.661Z,928.18
2018-03-29T20:17:29.779Z,928.14
2018-03-29T20:17:42.680Z,928.18
2018-03-29T20:17:54.786Z,928.15
2018-03-29T20:18:07.004Z,928.17
2018-03-29T20:18:21.528Z,928.17
2018-03-29T20:18:34.056Z,928.16
2018-03-29T20:18:47.063Z,928.18
2018-03-29T20:18:59.214Z,928.12
2018-03-29T20:19:11.806Z,928.15
2018-03-29T20:19:24.413Z,928.16
2018-03-29T20:19:37.134Z,928.18
2018-03-29T20:19:49.792Z,928.18
2018-03-29T20:20:01.516Z,928.16
2018-03-29T20:20:14.746Z,928.18
2018-03-29T20:20:27.301Z,928.16
2018-03-29T20:20:40.430Z,928.13
2018-03-29T20:20:52.598Z,928.21
2018-03-29T20:21:05.258Z,928.2
2018-03-29T20:21:17.892Z,928.19
2018-03-29T20:21:31.243Z,928.13
2018-03-29T20:21:45.149Z,928.19
2018-03-29T20:21:57.323Z,928.17
2018-03-29T20:22:09.889Z,928.16
2018-03-29T20:22:23.119Z,928.14
2018-03-29T20:22:36.016Z,928.14
2018-03-29T20:22:48.649Z,928.17
2018-03-29T20:23:02.510Z,928.14
2018-03-29T20:23:15.165Z,928.16
2018-03-29T20:23:27.982Z,928.18
2018-03-29T20:23:41.858Z,928.18
2018-03-29T20:23:54.027Z,928.18
2018-03-29T20:24:07.147Z,928.2
2018-03-29T20:24:20.467Z,928.16
2018-03-29T20:24:32.129Z,928.17
2018-03-29T20:24:44.780Z,928.17
2018-03-29T20:24:57.295Z,928.16
2018-03-29T20:25:09.923Z,928.18
2018-03-29T20:25:26.034Z,928.18
2018-03-29T20:25:38.227Z,928.18
2018-03-29T20:25:52.279Z,928.16
2018-03-29T20:26:04.877Z,928.16
2018-03-29T20:26:17.492Z,928.16
2018-03-29T20:26:30.943Z,928.16
2018-03-29T20:26:43.478Z,928.17
2018-03-29T20:26:56.628Z,928.16
2018-03-29T20:27:09.048Z,928.16
2018-03-29T20:27:21.678Z,928.14
2018-03-29T20:27:33.477Z,928.16
2018-03-29T20:27:45.666Z,928.16
2018-03-29T20:27:58.878Z,928.14
2018-03-29T20:28:12.854Z,928.14
2018-03-29T20:28:24.984Z,928.13
2018-03-29T20:28:38.230Z,928.1
2018-03-29T20:28:50.530Z,928.1
2018-03-29T20:29:03.237Z,928.1
2018-03-29T20:29:16.538Z,928.08
2018-03-29T20:29:29.976Z,928.09
2018-03-29T20:29:43.991Z,928.12
2018-03-29T20:29:56.139Z,928.09
2018-03-29T20:30:07.900Z,928.08
2018-03-29T20:30:19.617Z,928.11
2018-03-29T20:30:32.700Z,928.07
2018-03-29T20:30:45.315Z,928.11
2018-03-29T20:30:57.917Z,928.04
2018-03-29T20:31:10.484Z,928.06
2018-03-29T20:31:23.159Z,928.06
2018-03-29T20:31:34.410Z,928.07
2018-03-29T20:31:47.069Z,928.06
2018-03-29T20:31:59.285Z,928.05
2018-03-29T20:32:13.135Z,928.06
2018-03-29T20:32:25.829Z,928.08
2018-03-29T20:32:39.019Z,928.08
2018-03-29T20:32:52.332Z,928.07
2018-03-29T20:33:05.699Z,928.05
2018-03-29T20:33:17.819Z,928.04
2018-03-29T20:33:31.110Z,928.03
2018-03-29T20:33:44.287Z,928.01
2018-03-29T20:33:58.681Z,928.01
2018-03-29T20:34:10.807Z,927.97
2018-03-29T20:34:22.960Z,928
2018-03-29T20:34:34.818Z,927.98
2018-03-29T20:34:47.893Z,927.99
2018-03-29T20:35:00.570Z,927.99
2018-03-29T20:35:13.206Z,927.98
2018-03-29T20:35:25.877Z,928
2018-03-29T20:35:38.528Z,928.01
2018-03-29T20:35:51.635Z,927.98
2018-03-29T20:36:03.376Z,927.96
2018-03-29T20:36:15.865Z,927.98
2018-03-29T20:36:29.655Z,928.02
2018-03-29T20:36:43.277Z,927.95
2018-03-29T20:36:55.940Z,927.96
2018-03-29T20:37:08.576Z,927.93
2018-03-29T20:37:20.776Z,927.93
2018-03-29T20:37:34.133Z,927.92
2018-03-29T20:37:47.184Z,927.96
2018-03-29T20:37:58.895Z,927.96
2018-03-29T20:38:11.448Z,927.96
2018-03-29T20:38:23.731Z,927.98
2018-03-29T20:38:35.436Z,928.01
2018-03-29T20:38:47.540Z,927.99
2018-03-29T20:39:00.136Z,927.97
2018-03-29T20:39:13.154Z,927.93
2018-03-29T20:39:26.653Z,927.96
2018-03-29T20:39:40.846Z,928.01
2018-03-29T20:39:54.591Z,928.01
2018-03-29T20:40:06.844Z,927.99
2018-03-29T20:40:18.614Z,927.97
2018-03-29T20:40:47.535Z,927.97
2018-03-29T20:41:00.427Z,927.98
2018-03-29T20:41:12.940Z,927.99
2018-03-29T20:41:25.652Z,927.97
2018-03-29T20:41:38.740Z,927.93
2018-03-29T20:41:51.844Z,927.97
2018-03-29T20:42:03.555Z,928
2018-03-29T20:42:15.745Z,928
2018-03-29T20:42:28.395Z,927.95
2018-03-29T20:42:41.381Z,928
2018-03-29T20:42:54.542Z,927.97
2018-03-29T20:43:07.654Z,927.97
2018-03-29T20:43:20.247Z,927.97
2018-03-29T20:43:32.437Z,927.99
2018-03-29T20:43:45.100Z,927.97
2018-03-29T20:43:57.253Z,927.99
2018-03-29T20:44:10.475Z,928.02
2018-03-29T20:44:23.669Z,928
2018-03-29T20:44:35.805Z,927.99
2018-03-29T20:44:48.313Z,927.96
2018-03-29T20:45:02.027Z,927.99
2018-03-29T20:45:14.165Z,927.96
2018-03-29T20:45:26.881Z,927.97
2018-03-29T20:45:39.506Z,927.94
2018-03-29T20:45:51.586Z,927.96
2018-03-29T20:46:04.225Z,927.96
2018-03-29T20:46:16.797Z,927.96
2018-03-29T20:46:29.858Z,927.96
2018-03-29T20:46:42.965Z,927.95
2018-03-29T20:46:55.741Z,927.97
2018-03-29T20:47:09.118Z,927.94
2018-03-29T20:47:21.855Z,927.96
2018-03-29T20:47:34.025Z,927.94
2018-03-29T20:47:45.752Z,927.93
2018-03-29T20:47:57.958Z,927.96
2018-03-29T20:48:10.987Z,927.91
2018-03-29T20:48:23.094Z,927.93
2018-03-29T20:49:58.809Z,927.93
2018-03-29T20:50:11.637Z,927.91
2018-03-29T20:50:24.121Z,927.92
2018-03-29T20:50:37.453Z,927.92
2018-03-29T20:50:50.506Z,927.93
2018-03-29T20:51:03.050Z,927.93
2018-03-29T20:51:15.946Z,927.95
2018-03-29T20:51:28.569Z,927.95
2018-03-29T20:51:40.642Z,927.96
2018-03-29T20:51:53.378Z,927.94
2018-03-29T20:52:06.045Z,927.93
2018-03-29T20:52:18.219Z,927.92
2018-03-29T20:52:29.975Z,927.93
2018-03-29T20:52:42.176Z,927.95
2018-03-29T20:52:54.836Z,927.96
2018-03-29T20:53:07.591Z,927.96
2018-03-29T20:53:19.732Z,927.96
2018-03-29T20:53:33.075Z,927.97
2018-03-29T20:53:45.680Z,927.97
2018-03-29T20:53:57.902Z,927.94
2018-03-29T20:54:09.536Z,927.96
2018-03-29T20:54:22.685Z,927.96
2018-03-29T20:54:34.319Z,927.95
2018-03-29T20:54:45.933Z,927.96
2018-03-29T20:54:58.724Z,927.95
2018-03-29T20:55:10.933Z,927.96
2018-03-29T20:55:23.192Z,927.96
2018-03-29T20:55:37.310Z,927.98
2018-03-29T20:55:50.005Z,927.98
2018-03-29T20:56:03.282Z,928.01
2018-03-29T20:56:14.975Z,928.01
2018-03-29T20:56:26.698Z,927.98
2018-03-29T20:56:39.801Z,928.01
2018-03-29T20:56:52.988Z,927.97
2018-03-29T20:57:06.217Z,927.98
2018-03-29T20:57:19.258Z,928
2018-03-29T20:57:31.368Z,927.99
2018-03-29T20:57:44.477Z,927.98
2018-03-29T20:57:56.692Z,928
2018-03-29T20:58:09.353Z,927.97
2018-03-29T20:58:21.430Z,927.94
2018-03-29T20:58:34.046Z,927.96
2018-03-29T20:58:46.602Z,927.96
2018-03-29T20:58:59.142Z,927.94
2018-03-29T20:59:12.464Z,927.94
2018-03-29T20:59:25.108Z,927.95
2018-03-29T20:59:36.316Z,927.94
2018-03-29T20:59:48.981Z,927.95
2018-03-29T21:00:01.523Z,927.95
2018-03-29T21:00:13.700Z,927.95
2018-03-29T21:00:25.433Z,927.92
2018-03-29T21:00:37.667Z,927.92
2018-03-29T21:00:49.394Z,927.94
2018-03-29T21:01:01.914Z,927.91
2018-03-29T21:01:14.528Z,927.9
2018-03-29T21:01:27.209Z,927.91
2018-03-29T21:01:40.348Z,927.94
2018-03-29T21:01:52.513Z,927.94
2018-03-29T21:02:04.696Z,927.91
2018-03-29T21:02:17.261Z,927.94
2018-03-29T21:02:30.400Z,927.87
2018-03-29T21:02:43.540Z,927.95
2018-03-29T21:02:55.766Z,927.95
2018-03-29T21:03:07.677Z,927.91
2018-03-29T21:03:21.180Z,927.92
2018-03-29T21:03:34.343Z,927.92
2018-03-29T21:03:46.515Z,927.94
2018-03-29T21:03:59.158Z,927.88
2018-03-29T21:04:11.870Z,927.91
2018-03-29T21:04:25.268Z,927.9
2018-03-29T21:04:36.947Z,927.93
2018-03-29T21:04:48.972Z,927.92
2018-03-29T21:05:02.444Z,927.92
2018-03-29T21:05:14.564Z,927.87
2018-03-29T21:05:26.571Z,927.89
2018-03-29T21:05:38.735Z,927.88
2018-03-29T21:05:50.931Z,927.9
2018-03-29T21:06:07.243Z,927.88
2018-03-29T21:06:19.892Z,927.9
2018-03-29T21:06:33.740Z,927.85
2018-03-29T21:06:45.875Z,927.88
2018-03-29T21:06:58.206Z,927.89
2018-03-29T21:07:11.999Z,927.91
2018-03-29T21:07:24.584Z,927.92
2018-03-29T21:07:38.574Z,927.91
2018-03-29T21:07:51.278Z,927.9
2018-03-29T21:08:04.458Z,927.86
2018-03-29T21:08:17.619Z,927.94
2018-03-29T21:08:30.262Z,927.92
2018-03-29T21:08:42.897Z,927.87
2018-03-29T21:08:55.103Z,927.93
2018-03-29T21:09:07.255Z,927.9
2018-03-29T21:09:19.034Z,927.91
2018-03-29T21:09:32.410Z,927.92
2018-03-29T21:09:45.115Z,927.96
2018-03-29T21:09:57.694Z,927.92